createdAt,value
2018-07-16T00:00:33.450Z,965.49
2018-07-16T00:01:33.404Z,965.47
2018-07-16T00:02:33.355Z,965.46
2018-07-16T00:03:33.345Z,965.45
2018-07-16T00:04:33.266Z,965.46
2018-07-16T00:05:33.225Z,965.43
2018-07-16T00:06:33.180Z,965.42
2018-07-16T00:07:33.132Z,965.42
2018-07-16T00:08:33.124Z,965.42
2018-07-16T00:09:33.047Z,965.38
2018-07-16T00:10:33.002Z,965.40
2018-07-16T00:11:32.956Z,965.39
2018-07-16T00:12:32.941Z,965.39
2018-07-16T00:13:32.867Z,965.37
2018-07-16T00:14:32.857Z,965.38
2018-07-16T00:15:32.777Z,965.39
2018-07-16T00:16:32.732Z,965.38
2018-07-16T00:17:32.723Z,965.41
2018-07-16T00:18:32.675Z,965.39
2018-07-16T00:19:32.602Z,965.37
2018-07-16T00:20:32.555Z,965.38
2018-07-16T00:21:32.514Z,965.37
2018-07-16T00:22:32.498Z,965.40
2018-07-16T00:23:32.453Z,965.39
2018-07-16T00:24:32.375Z,965.38
2018-07-16T00:25:32.331Z,965.38
2018-07-16T00:26:32.290Z,965.37
2018-07-16T00:27:32.244Z,965.39
2018-07-16T00:28:32.240Z,965.42
2018-07-16T00:29:32.155Z,965.38
2018-07-16T00:30:32.109Z,965.41
2018-07-16T00:31:32.065Z,965.41
2018-07-16T00:32:32.022Z,965.38
2018-07-16T00:33:32.009Z,965.41
2018-07-16T00:34:31.964Z,965.38
2018-07-16T00:35:31.888Z,965.44
2018-07-16T00:36:31.844Z,965.39
2018-07-16T00:37:31.802Z,965.37
2018-07-16T00:38:31.754Z,965.42
2018-07-16T00:39:31.741Z,965.38
2018-07-16T00:40:31.666Z,965.41
2018-07-16T00:41:31.622Z,965.41
2018-07-16T00:42:31.611Z,965.41
2018-07-16T00:43:31.533Z,965.40
2018-07-16T00:44:31.489Z,965.40
2018-07-16T00:45:31.483Z,965.40
2018-07-16T00:46:31.395Z,965.40
2018-07-16T00:47:31.354Z,965.42
2018-07-16T00:48:31.319Z,965.39
2018-07-16T00:49:31.263Z,965.37
2018-07-16T00:50:31.252Z,965.36
2018-07-16T00:51:31.175Z,965.39
2018-07-16T00:52:31.133Z,965.38
2018-07-16T00:53:31.126Z,965.36
2018-07-16T00:54:31.040Z,965.32
2018-07-16T00:55:30.997Z,965.35
2018-07-16T00:56:30.974Z,965.36
2018-07-16T00:57:30.914Z,965.38
2018-07-16T00:58:30.893Z,965.35
2018-07-16T00:59:30.820Z,965.37
2018-07-16T01:00:30.772Z,965.38
2018-07-16T01:01:30.761Z,965.38
2018-07-16T01:02:30.683Z,965.39
2018-07-16T01:03:30.641Z,965.42
2018-07-16T01:04:30.596Z,965.44
2018-07-16T01:05:30.581Z,965.46
2018-07-16T01:06:30.554Z,965.44
2018-07-16T01:07:30.471Z,965.43
2018-07-16T01:08:30.420Z,965.45
2018-07-16T01:09:30.373Z,965.44
2018-07-16T01:10:30.330Z,965.43
2018-07-16T01:11:30.316Z,965.43
2018-07-16T01:12:30.237Z,965.42
2018-07-16T01:13:30.225Z,965.39
2018-07-16T01:14:30.148Z,965.43
2018-07-16T01:15:30.103Z,965.41
2018-07-16T01:16:30.061Z,965.41
2018-07-16T01:17:30.057Z,965.43
2018-07-16T01:18:29.970Z,965.42
2018-07-16T01:19:29.926Z,965.45
2018-07-16T01:20:29.881Z,965.42
2018-07-16T01:21:29.836Z,965.44
2018-07-16T01:22:29.830Z,965.42
2018-07-16T01:23:29.748Z,965.43
2018-07-16T01:24:29.704Z,965.42
2018-07-16T01:25:29.656Z,965.41
2018-07-16T01:26:29.613Z,965.43
2018-07-16T01:27:29.599Z,965.43
2018-07-16T01:28:29.520Z,965.43
2018-07-16T01:29:29.479Z,965.41
2018-07-16T01:30:29.434Z,965.44
2018-07-16T01:31:29.385Z,965.41
2018-07-16T01:32:29.375Z,965.43
2018-07-16T01:33:29.298Z,965.40
2018-07-16T01:34:29.253Z,965.43
2018-07-16T01:35:29.247Z,965.42
2018-07-16T01:36:29.164Z,965.44
2018-07-16T01:37:29.121Z,965.41
2018-07-16T01:38:29.073Z,965.38
2018-07-16T01:39:29.030Z,965.40
2018-07-16T01:40:29.015Z,965.38
2018-07-16T01:41:28.941Z,965.40
2018-07-16T01:42:28.927Z,965.44
2018-07-16T01:43:28.846Z,965.41
2018-07-16T01:44:28.805Z,965.43
2018-07-16T01:45:28.757Z,965.39
2018-07-16T01:46:28.745Z,965.44
2018-07-16T01:47:28.670Z,965.43
2018-07-16T01:48:28.659Z,965.41
2018-07-16T01:49:28.581Z,965.42
2018-07-16T01:50:28.530Z,965.45
2018-07-16T01:51:28.489Z,965.41
2018-07-16T01:52:28.441Z,965.42
2018-07-16T01:53:28.432Z,965.42
2018-07-16T01:54:28.353Z,965.45
2018-07-16T01:55:28.305Z,965.43
2018-07-16T01:56:28.259Z,965.39
2018-07-16T01:57:28.218Z,965.43
2018-07-16T01:58:28.212Z,965.41
2018-07-16T01:59:28.128Z,965.43
2018-07-16T02:00:28.081Z,965.41
2018-07-16T02:01:28.035Z,965.41
2018-07-16T02:02:27.990Z,965.38
2018-07-16T02:03:27.988Z,965.43
2018-07-16T02:04:27.903Z,965.41
2018-07-16T02:05:27.854Z,965.36
2018-07-16T02:06:27.810Z,965.36
2018-07-16T02:07:27.769Z,965.38
2018-07-16T02:08:27.754Z,965.37
2018-07-16T02:09:27.677Z,965.37
2018-07-16T02:10:27.662Z,965.33
2018-07-16T02:11:27.586Z,965.32
2018-07-16T02:12:27.572Z,965.33
2018-07-16T02:13:27.495Z,965.33
2018-07-16T02:14:27.480Z,965.29
2018-07-16T02:15:27.446Z,965.34
2018-07-16T02:16:27.361Z,965.34
2018-07-16T02:17:27.313Z,965.31
2018-07-16T02:18:27.307Z,965.29
2018-07-16T02:19:27.226Z,965.32
2018-07-16T02:20:27.212Z,965.34
2018-07-16T02:21:27.137Z,965.33
2018-07-16T02:22:27.121Z,965.29
2018-07-16T02:23:27.049Z,965.31
2018-07-16T02:24:27.000Z,965.29
2018-07-16T02:25:26.955Z,965.32
2018-07-16T02:26:26.909Z,965.32
2018-07-16T02:27:26.899Z,965.31
2018-07-16T02:28:26.821Z,965.28
2018-07-16T02:29:26.775Z,965.29
2018-07-16T02:30:26.771Z,965.26
2018-07-16T02:31:26.689Z,965.25
2018-07-16T02:32:26.640Z,965.26
2018-07-16T02:33:26.599Z,965.21
2018-07-16T02:34:26.553Z,965.24
2018-07-16T02:35:26.534Z,965.23
2018-07-16T02:36:26.461Z,965.24
2018-07-16T02:37:26.416Z,965.24
2018-07-16T02:38:26.370Z,965.24
2018-07-16T02:39:26.326Z,965.24
2018-07-16T02:40:26.315Z,965.27
2018-07-16T02:41:26.236Z,965.29
2018-07-16T02:42:26.221Z,965.31
2018-07-16T02:43:26.144Z,965.29
2018-07-16T02:44:26.097Z,965.26
2018-07-16T02:45:26.056Z,965.26
2018-07-16T02:46:26.012Z,965.23
2018-07-16T02:47:25.999Z,965.25
2018-07-16T02:48:25.969Z,965.22
2018-07-16T02:49:25.876Z,965.22
2018-07-16T02:50:25.835Z,965.22
2018-07-16T02:51:25.789Z,965.21
2018-07-16T02:52:25.739Z,965.17
2018-07-16T02:53:25.735Z,965.17
2018-07-16T02:54:25.651Z,965.15
2018-07-16T02:55:25.602Z,965.20
2018-07-16T02:56:25.670Z,965.20
2018-07-16T02:57:25.513Z,965.22
2018-07-16T02:58:25.500Z,965.24
2018-07-16T02:59:25.458Z,965.24
2018-07-16T03:00:25.381Z,965.25
2018-07-16T03:01:25.340Z,965.29
2018-07-16T03:02:25.330Z,965.29
2018-07-16T03:03:25.245Z,965.28
2018-07-16T03:04:25.198Z,965.29
2018-07-16T03:05:25.155Z,965.28
2018-07-16T03:06:25.105Z,965.26
2018-07-16T03:07:25.094Z,965.25
2018-07-16T03:08:25.020Z,965.26
2018-07-16T03:09:24.972Z,965.24
2018-07-16T03:10:24.929Z,965.23
2018-07-16T03:11:24.920Z,965.25
2018-07-16T03:12:24.836Z,965.26
2018-07-16T03:13:24.794Z,965.30
2018-07-16T03:14:24.745Z,965.32
2018-07-16T03:15:24.698Z,965.27
2018-07-16T03:16:24.687Z,965.28
2018-07-16T03:17:24.609Z,965.27
2018-07-16T03:18:24.562Z,965.29
2018-07-16T03:19:24.549Z,965.24
2018-07-16T03:20:24.504Z,965.26
2018-07-16T03:21:24.429Z,965.25
2018-07-16T03:22:24.381Z,965.23
2018-07-16T03:23:24.338Z,965.23
2018-07-16T03:24:24.325Z,965.22
2018-07-16T03:25:24.249Z,965.17
2018-07-16T03:26:24.230Z,965.16
2018-07-16T03:27:24.155Z,965.16
2018-07-16T03:28:24.110Z,965.13
2018-07-16T03:29:24.068Z,965.15
2018-07-16T03:30:24.048Z,965.13
2018-07-16T03:31:23.974Z,965.14
2018-07-16T03:32:23.931Z,965.14
2018-07-16T03:33:23.916Z,965.12
2018-07-16T03:34:23.836Z,965.12
2018-07-16T03:35:23.791Z,965.08
2018-07-16T03:36:23.749Z,965.04
2018-07-16T03:37:23.704Z,965.05
2018-07-16T03:38:23.691Z,965.06
2018-07-16T03:39:23.609Z,965.08
2018-07-16T03:40:23.562Z,965.04
2018-07-16T03:41:23.522Z,965.08
2018-07-16T03:42:23.476Z,965.10
2018-07-16T03:43:23.463Z,965.07
2018-07-16T03:44:23.418Z,965.08
2018-07-16T03:45:23.343Z,965.06
2018-07-16T03:46:23.292Z,965.08
2018-07-16T03:47:23.246Z,965.08
2018-07-16T03:48:23.202Z,965.07
2018-07-16T03:49:23.187Z,965.09
2018-07-16T03:50:23.110Z,965.11
2018-07-16T03:51:23.064Z,965.11
2018-07-16T03:52:23.018Z,965.09
2018-07-16T03:53:23.007Z,965.08
2018-07-16T03:54:22.977Z,965.10
2018-07-16T03:55:22.882Z,965.12
2018-07-16T03:56:22.840Z,965.09
2018-07-16T03:57:22.825Z,965.08
2018-07-16T03:58:22.747Z,965.12
2018-07-16T03:59:22.701Z,965.13
2018-07-16T04:00:22.655Z,965.06
2018-07-16T04:01:22.643Z,965.09
2018-07-16T04:02:22.564Z,965.10
2018-07-16T04:03:22.522Z,965.12
2018-07-16T04:04:22.471Z,965.11
2018-07-16T04:05:22.430Z,965.14
2018-07-16T04:06:22.412Z,965.10
2018-07-16T04:07:22.346Z,965.10
2018-07-16T04:08:22.422Z,965.13
2018-07-16T04:09:22.248Z,965.08
2018-07-16T04:10:22.199Z,965.09
2018-07-16T04:11:22.153Z,965.07
2018-07-16T04:12:22.111Z,965.07
2018-07-16T04:13:22.094Z,965.09
2018-07-16T04:14:22.017Z,965.04
2018-07-16T04:15:21.971Z,965.07
2018-07-16T04:16:21.926Z,965.05
2018-07-16T04:17:21.879Z,965.08
2018-07-16T04:18:21.866Z,965.05
2018-07-16T04:19:21.823Z,965.08
2018-07-16T04:20:21.744Z,965.08
2018-07-16T04:21:21.698Z,965.07
2018-07-16T04:22:21.685Z,965.04
2018-07-16T04:23:21.615Z,965.05
2018-07-16T04:24:21.603Z,965.07
2018-07-16T04:25:21.519Z,965.06
2018-07-16T04:26:21.469Z,965.05
2018-07-16T04:27:21.428Z,965.09
2018-07-16T04:28:21.389Z,965.07
2018-07-16T04:29:21.379Z,965.07
2018-07-16T04:30:21.286Z,965.10
2018-07-16T04:31:21.247Z,965.10
2018-07-16T04:32:21.198Z,965.11
2018-07-16T04:33:21.151Z,965.15
2018-07-16T04:34:21.137Z,965.14
2018-07-16T04:35:21.062Z,965.17
2018-07-16T04:36:21.018Z,965.19
2018-07-16T04:37:20.969Z,965.22
2018-07-16T04:38:20.963Z,965.20
2018-07-16T04:39:20.882Z,965.18
2018-07-16T04:40:20.833Z,965.23
2018-07-16T04:41:20.790Z,965.22
2018-07-16T04:42:20.743Z,965.18
2018-07-16T04:43:20.733Z,965.20
2018-07-16T04:44:20.650Z,965.20
2018-07-16T04:45:20.610Z,965.21
2018-07-16T04:46:20.603Z,965.23
2018-07-16T04:47:20.519Z,965.24
2018-07-16T04:48:20.500Z,965.22
2018-07-16T04:49:20.456Z,965.25
2018-07-16T04:50:20.381Z,965.25
2018-07-16T04:51:20.335Z,965.23
2018-07-16T04:52:20.318Z,965.24
2018-07-16T04:53:20.277Z,965.21
2018-07-16T04:54:20.229Z,965.21
2018-07-16T04:55:20.151Z,965.21
2018-07-16T04:56:20.177Z,965.23
2018-07-16T04:57:20.063Z,965.23
2018-07-16T04:58:20.040Z,965.21
2018-07-16T04:59:19.967Z,965.20
2018-07-16T05:00:19.923Z,965.21
2018-07-16T05:01:19.880Z,965.23
2018-07-16T05:02:19.832Z,965.19
2018-07-16T05:03:19.867Z,965.19
2018-07-16T05:04:19.784Z,965.21
2018-07-16T05:05:19.699Z,965.20
2018-07-16T05:06:19.656Z,965.19
2018-07-16T05:07:19.605Z,965.21
2018-07-16T05:08:19.602Z,965.22
2018-07-16T05:09:19.517Z,965.23
2018-07-16T05:10:19.470Z,965.22
2018-07-16T05:11:19.423Z,965.23
2018-07-16T05:12:19.379Z,965.25
2018-07-16T05:13:19.366Z,965.26
2018-07-16T05:14:19.318Z,965.23
2018-07-16T05:15:19.245Z,965.27
2018-07-16T05:16:19.203Z,965.26
2018-07-16T05:17:19.153Z,965.26
2018-07-16T05:18:19.192Z,965.24
2018-07-16T05:19:19.066Z,965.24
2018-07-16T05:20:19.017Z,965.21
2018-07-16T05:21:18.971Z,965.27
2018-07-16T05:22:18.925Z,965.24
2018-07-16T05:23:18.915Z,965.21
2018-07-16T05:24:18.839Z,965.21
2018-07-16T05:25:18.822Z,965.22
2018-07-16T05:26:18.746Z,965.21
2018-07-16T05:27:18.702Z,965.16
2018-07-16T05:28:18.694Z,965.13
2018-07-16T05:29:18.613Z,965.17
2018-07-16T05:30:18.566Z,965.17
2018-07-16T05:31:18.556Z,965.17
2018-07-16T05:32:18.572Z,965.19
2018-07-16T05:33:18.464Z,965.17
2018-07-16T05:34:18.386Z,965.16
2018-07-16T05:35:18.343Z,965.19
2018-07-16T05:36:18.301Z,965.23
2018-07-16T05:37:18.295Z,965.26
2018-07-16T05:38:18.313Z,965.23
2018-07-16T05:39:18.168Z,965.22
2018-07-16T05:40:18.119Z,965.21
2018-07-16T05:41:18.076Z,965.23
2018-07-16T05:42:18.064Z,965.21
2018-07-16T05:43:17.986Z,965.20
2018-07-16T05:44:17.973Z,965.22
2018-07-16T05:45:17.898Z,965.21
2018-07-16T05:46:17.852Z,965.20
2018-07-16T05:47:17.807Z,965.22
2018-07-16T05:48:17.794Z,965.21
2018-07-16T05:49:17.718Z,965.19
2018-07-16T05:50:17.706Z,965.19
2018-07-16T05:51:17.627Z,965.19
2018-07-16T05:52:17.584Z,965.21
2018-07-16T05:53:17.541Z,965.24
2018-07-16T05:54:17.501Z,965.20
2018-07-16T05:55:17.483Z,965.20
2018-07-16T05:56:17.406Z,965.21
2018-07-16T05:57:17.366Z,965.20
2018-07-16T05:58:17.330Z,965.23
2018-07-16T05:59:17.305Z,965.19
2018-07-16T06:00:17.249Z,965.21
2018-07-16T06:01:17.227Z,965.17
2018-07-16T06:02:17.141Z,965.19
2018-07-16T06:03:17.095Z,965.19
2018-07-16T06:04:17.056Z,965.21
2018-07-16T06:05:17.014Z,965.20
2018-07-16T06:06:16.998Z,965.21
2018-07-16T06:07:16.926Z,965.21
2018-07-16T06:08:16.876Z,965.21
2018-07-16T06:09:16.831Z,965.21
2018-07-16T06:10:16.785Z,965.24
2018-07-16T06:11:16.773Z,965.22
2018-07-16T06:12:16.699Z,965.25
2018-07-16T06:13:16.661Z,965.22
2018-07-16T06:14:16.607Z,965.22
2018-07-16T06:15:16.570Z,965.24
2018-07-16T06:16:16.551Z,965.15
2018-07-16T06:17:16.473Z,965.19
2018-07-16T06:18:16.463Z,965.22
2018-07-16T06:19:16.388Z,965.19
2018-07-16T06:20:16.346Z,965.21
2018-07-16T06:21:16.299Z,965.23
2018-07-16T06:22:16.292Z,965.24
2018-07-16T06:23:16.212Z,965.20
2018-07-16T06:24:16.169Z,965.21
2018-07-16T06:25:16.121Z,965.22
2018-07-16T06:26:16.077Z,965.20
2018-07-16T06:27:16.065Z,965.19
2018-07-16T06:28:15.991Z,965.20
2018-07-16T06:29:15.948Z,965.19
2018-07-16T06:30:15.900Z,965.20
2018-07-16T06:31:15.863Z,965.18
2018-07-16T06:32:15.856Z,965.22
2018-07-16T06:33:15.769Z,965.22
2018-07-16T06:34:15.725Z,965.19
2018-07-16T06:35:15.682Z,965.24
2018-07-16T06:36:15.636Z,965.23
2018-07-16T06:37:15.623Z,965.23
2018-07-16T06:38:15.549Z,965.21
2018-07-16T06:39:15.550Z,965.22
2018-07-16T06:40:15.595Z,965.24
2018-07-16T06:41:15.874Z,965.20
2018-07-16T06:42:15.372Z,965.22
2018-07-16T06:43:15.353Z,965.19
2018-07-16T06:44:15.318Z,965.18
2018-07-16T06:45:15.243Z,965.22
2018-07-16T06:46:15.197Z,965.20
2018-07-16T06:47:15.156Z,965.24
2018-07-16T06:48:15.108Z,965.25
2018-07-16T06:49:15.100Z,965.25
2018-07-16T06:50:15.022Z,965.19
2018-07-16T06:51:14.980Z,965.18
2018-07-16T06:52:14.934Z,965.18
2018-07-16T06:53:14.891Z,965.14
2018-07-16T06:54:14.879Z,965.19
2018-07-16T06:55:14.918Z,965.18
2018-07-16T06:56:14.760Z,965.14
2018-07-16T06:57:14.727Z,965.17
2018-07-16T06:58:14.706Z,965.18
2018-07-16T06:59:14.628Z,965.19
2018-07-16T07:00:14.583Z,965.14
2018-07-16T07:01:14.543Z,965.21
2018-07-16T07:02:14.584Z,965.20
2018-07-16T07:03:14.454Z,965.16
2018-07-16T07:04:14.412Z,965.19
2018-07-16T07:05:14.369Z,965.22
2018-07-16T07:06:14.362Z,965.09
2018-07-16T07:07:14.280Z,965.12
2018-07-16T07:08:14.242Z,965.10
2018-07-16T07:09:14.196Z,965.11
2018-07-16T07:10:14.186Z,965.10
2018-07-16T07:11:14.106Z,965.13
2018-07-16T07:12:14.063Z,965.12
2018-07-16T07:13:14.025Z,965.09
2018-07-16T07:14:13.985Z,965.12
2018-07-16T07:15:13.986Z,965.13
2018-07-16T07:16:13.893Z,965.12
2018-07-16T07:17:13.852Z,965.12
2018-07-16T07:18:13.841Z,965.13
2018-07-16T07:19:13.770Z,965.13
2018-07-16T07:20:13.755Z,965.10
2018-07-16T07:21:13.681Z,965.11
2018-07-16T07:22:13.634Z,965.09
2018-07-16T07:23:13.592Z,965.08
2018-07-16T07:24:13.551Z,965.06
2018-07-16T07:25:13.533Z,965.08
2018-07-16T07:26:13.462Z,965.06
2018-07-16T07:27:13.455Z,965.05
2018-07-16T07:28:13.410Z,965.05
2018-07-16T07:29:13.333Z,965.09
2018-07-16T07:30:13.292Z,965.06
2018-07-16T07:31:13.248Z,965.05
2018-07-16T07:32:13.241Z,965.04
2018-07-16T07:33:13.197Z,965.02
2018-07-16T07:34:13.119Z,965.01
2018-07-16T07:35:13.281Z,965.03
2018-07-16T07:36:13.042Z,964.99
2018-07-16T07:37:12.991Z,965.01
2018-07-16T07:38:12.977Z,965.00
2018-07-16T07:39:12.912Z,965.01
2018-07-16T07:40:12.900Z,964.99
2018-07-16T07:41:12.821Z,964.98
2018-07-16T07:42:12.778Z,964.99
2018-07-16T07:43:12.868Z,964.99
2018-07-16T07:44:12.693Z,964.97
2018-07-16T07:45:12.653Z,964.95
2018-07-16T07:46:12.610Z,965.01
2018-07-16T07:47:12.566Z,965.06
2018-07-16T07:48:12.565Z,964.97
2018-07-16T07:49:12.483Z,964.96
2018-07-16T07:50:12.472Z,965.01
2018-07-16T07:51:12.397Z,964.99
2018-07-16T07:52:12.356Z,965.00
2018-07-16T07:53:12.317Z,964.99
2018-07-16T07:54:12.419Z,965.04
2018-07-16T07:55:12.495Z,964.99
2018-07-16T07:56:12.185Z,965.03
2018-07-16T07:57:12.143Z,964.98
2018-07-16T07:58:12.101Z,964.99
2018-07-16T07:59:12.061Z,965.00
2018-07-16T08:00:12.060Z,964.99
2018-07-16T08:01:11.978Z,964.98
2018-07-16T08:02:11.933Z,964.97
2018-07-16T08:03:11.956Z,964.94
2018-07-16T08:04:11.850Z,964.93
2018-07-16T08:05:11.847Z,964.97
2018-07-16T08:06:11.766Z,965.00
2018-07-16T08:07:11.726Z,964.95
2018-07-16T08:08:11.682Z,964.96
2018-07-16T08:09:11.642Z,965.02
2018-07-16T08:10:11.639Z,964.97
2018-07-16T08:11:11.556Z,964.95
2018-07-16T08:12:11.517Z,964.94
2018-07-16T08:13:11.476Z,964.93
2018-07-16T08:14:11.431Z,964.93
2018-07-16T08:15:11.421Z,964.94
2018-07-16T08:16:11.346Z,964.96
2018-07-16T08:17:11.307Z,965.00
2018-07-16T08:18:11.266Z,964.97
2018-07-16T08:19:11.224Z,965.03
2018-07-16T08:20:11.222Z,965.00
2018-07-16T08:21:11.140Z,964.99
2018-07-16T08:22:11.103Z,964.98
2018-07-16T08:23:11.057Z,965.01
2018-07-16T08:24:11.019Z,965.03
2018-07-16T08:25:11.007Z,965.05
2018-07-16T08:26:10.933Z,965.02
2018-07-16T08:27:10.894Z,965.00
2018-07-16T08:28:10.853Z,964.99
2018-07-16T08:29:10.809Z,964.99
2018-07-16T08:30:10.799Z,965.03
2018-07-16T08:31:10.728Z,965.00
2018-07-16T08:32:10.717Z,965.03
2018-07-16T08:33:10.647Z,965.03
2018-07-16T08:34:10.603Z,965.05
2018-07-16T08:35:10.564Z,965.05
2018-07-16T08:36:10.524Z,965.10
2018-07-16T08:37:10.524Z,965.09
2018-07-16T08:38:10.440Z,965.07
2018-07-16T08:39:10.448Z,965.10
2018-07-16T08:40:10.360Z,965.04
2018-07-16T08:41:10.316Z,965.06
2018-07-16T08:42:10.308Z,965.05
2018-07-16T08:43:10.236Z,965.04
2018-07-16T08:44:10.196Z,964.98
2018-07-16T08:45:10.160Z,965.06
2018-07-16T08:46:10.114Z,965.06
2018-07-16T08:47:10.108Z,965.06
2018-07-16T08:48:10.036Z,965.04
2018-07-16T08:49:10.024Z,964.97
2018-07-16T08:50:09.953Z,965.00
2018-07-16T08:51:09.915Z,965.00
2018-07-16T08:52:09.904Z,965.04
2018-07-16T08:53:09.862Z,965.03
2018-07-16T08:54:09.794Z,965.05
2018-07-16T08:55:09.752Z,965.06
2018-07-16T08:56:09.710Z,965.01
2018-07-16T08:57:09.703Z,965.09
2018-07-16T08:58:09.633Z,965.04
2018-07-16T08:59:09.595Z,965.03
2018-07-16T09:00:09.584Z,965.05
2018-07-16T09:01:09.563Z,965.10
2018-07-16T09:02:09.472Z,965.08
2018-07-16T09:03:09.429Z,965.08
2018-07-16T09:04:09.408Z,965.06
2018-07-16T09:05:09.396Z,965.09
2018-07-16T09:06:09.347Z,965.02
2018-07-16T09:07:09.317Z,965.03
2018-07-16T09:08:09.231Z,965.04
2018-07-16T09:09:09.223Z,965.06
2018-07-16T09:10:09.152Z,965.02
2018-07-16T09:11:09.132Z,965.06
2018-07-16T09:12:09.070Z,965.03
2018-07-16T09:13:09.115Z,965.05
2018-07-16T09:14:09.028Z,965.07
2018-07-16T09:15:08.983Z,965.08
2018-07-16T09:16:08.913Z,965.10
2018-07-16T09:17:08.877Z,965.14
2018-07-16T09:18:08.867Z,965.12
2018-07-16T09:19:08.850Z,965.13
2018-07-16T09:20:08.752Z,965.12
2018-07-16T09:21:08.716Z,965.17
2018-07-16T09:22:08.675Z,965.15
2018-07-16T09:23:08.673Z,965.19
2018-07-16T09:24:08.628Z,965.18
2018-07-16T09:25:08.563Z,965.15
2018-07-16T09:26:08.521Z,965.14
2018-07-16T09:27:08.479Z,965.12
2018-07-16T09:28:08.446Z,965.12
2018-07-16T09:29:08.446Z,965.15
2018-07-16T09:30:08.385Z,965.15
2018-07-16T09:31:08.323Z,965.14
2018-07-16T09:32:08.286Z,965.13
2018-07-16T09:33:08.246Z,965.10
2018-07-16T09:34:08.242Z,965.11
2018-07-16T09:35:08.198Z,965.10
2018-07-16T09:36:08.131Z,965.08
2018-07-16T09:37:08.093Z,965.07
2018-07-16T09:38:08.052Z,965.00
2018-07-16T09:39:08.119Z,965.00
2018-07-16T09:40:08.011Z,965.04
2018-07-16T09:41:07.937Z,965.02
2018-07-16T09:42:07.897Z,965.02
2018-07-16T09:43:07.857Z,965.02
2018-07-16T09:44:07.820Z,964.99
2018-07-16T09:45:07.816Z,964.99
2018-07-16T09:46:07.774Z,965.01
2018-07-16T09:47:07.703Z,964.95
2018-07-16T09:48:07.667Z,964.93
2018-07-16T09:49:07.631Z,964.97
2018-07-16T09:50:07.593Z,964.91
2018-07-16T09:51:07.588Z,964.90
2018-07-16T09:52:07.513Z,964.82
2018-07-16T09:53:07.476Z,964.85
2018-07-16T09:54:07.441Z,964.83
2018-07-16T09:55:07.431Z,964.82
2018-07-16T09:56:07.476Z,964.81
2018-07-16T09:57:07.324Z,964.78
2018-07-16T09:58:07.289Z,964.71
2018-07-16T09:59:07.249Z,964.77
2018-07-16T10:00:07.208Z,964.73
2018-07-16T10:01:07.202Z,964.78
2018-07-16T10:02:07.133Z,964.78
2018-07-16T10:03:07.096Z,964.84
2018-07-16T10:04:07.055Z,964.83
2018-07-16T10:05:07.051Z,964.83
2018-07-16T10:06:07.018Z,964.82
2018-07-16T10:07:06.945Z,964.78
2018-07-16T10:08:06.909Z,964.71
2018-07-16T10:09:06.869Z,964.77
2018-07-16T10:10:06.833Z,964.69
2018-07-16T10:11:06.825Z,964.67
2018-07-16T10:12:06.754Z,964.68
2018-07-16T10:13:06.717Z,964.66
2018-07-16T10:14:06.675Z,964.63
2018-07-16T10:15:06.642Z,964.65
2018-07-16T10:16:06.633Z,964.63
2018-07-16T10:17:06.614Z,964.55
2018-07-16T10:18:06.526Z,964.51
2018-07-16T10:19:06.487Z,964.49
2018-07-16T10:20:06.463Z,964.51
2018-07-16T10:21:06.416Z,964.53
2018-07-16T10:22:06.408Z,964.50
2018-07-16T10:23:06.335Z,964.51
2018-07-16T10:24:06.301Z,964.50
2018-07-16T10:25:06.259Z,964.55
2018-07-16T10:26:06.227Z,964.55
2018-07-16T10:27:06.217Z,964.53
2018-07-16T10:28:06.174Z,964.55
2018-07-16T10:29:06.110Z,964.57
2018-07-16T10:30:06.068Z,964.61
2018-07-16T10:31:06.032Z,964.59
2018-07-16T10:32:05.996Z,964.66
2018-07-16T10:33:06.000Z,964.63
2018-07-16T10:34:05.920Z,964.66
2018-07-16T10:35:05.879Z,964.63
2018-07-16T10:36:05.839Z,964.66
2018-07-16T10:37:05.807Z,964.65
2018-07-16T10:38:05.796Z,964.63
2018-07-16T10:39:05.753Z,964.61
2018-07-16T10:40:05.688Z,964.57
2018-07-16T10:41:05.649Z,964.54
2018-07-16T10:42:05.608Z,964.59
2018-07-16T10:43:05.567Z,964.57
2018-07-16T10:44:05.564Z,964.57
2018-07-16T10:45:05.493Z,964.56
2018-07-16T10:46:05.453Z,964.55
2018-07-16T10:47:05.416Z,964.58
2018-07-16T10:48:05.377Z,964.59
2018-07-16T10:49:05.382Z,964.60
2018-07-16T10:50:05.299Z,964.62
2018-07-16T10:51:05.258Z,964.59
2018-07-16T10:52:05.221Z,964.54
2018-07-16T10:53:05.185Z,964.58
2018-07-16T10:54:05.175Z,964.57
2018-07-16T10:55:05.110Z,964.59
2018-07-16T10:56:05.067Z,964.61
2018-07-16T10:57:05.030Z,964.58
2018-07-16T10:58:05.077Z,964.59
2018-07-16T10:59:04.947Z,964.63
2018-07-16T11:00:04.909Z,964.60
2018-07-16T11:01:04.907Z,964.61
2018-07-16T11:02:04.881Z,964.60
2018-07-16T11:03:04.836Z,964.64
2018-07-16T11:04:04.783Z,964.61
2018-07-16T11:05:04.714Z,964.67
2018-07-16T11:06:04.705Z,964.65
2018-07-16T11:07:04.641Z,964.65
2018-07-16T11:08:04.596Z,964.62
2018-07-16T11:09:04.589Z,964.63
2018-07-16T11:10:04.524Z,964.69
2018-07-16T11:11:04.478Z,964.64
2018-07-16T11:12:04.441Z,964.61
2018-07-16T11:13:04.430Z,964.58
2018-07-16T11:14:04.359Z,964.55
2018-07-16T11:15:04.328Z,964.60
2018-07-16T11:16:04.279Z,964.57
2018-07-16T11:17:04.243Z,964.55
2018-07-16T11:18:04.233Z,964.55
2018-07-16T11:19:04.163Z,964.57
2018-07-16T11:20:04.124Z,964.57
2018-07-16T11:21:04.081Z,964.60
2018-07-16T11:22:04.086Z,964.59
2018-07-16T11:23:04.007Z,964.64
2018-07-16T11:24:03.972Z,964.66
2018-07-16T11:25:03.924Z,964.61
2018-07-16T11:26:03.881Z,964.64
2018-07-16T11:27:03.876Z,964.65
2018-07-16T11:28:03.801Z,964.61
2018-07-16T11:29:03.764Z,964.69
2018-07-16T11:30:03.724Z,964.63
2018-07-16T11:31:03.682Z,964.70
2018-07-16T11:32:03.673Z,964.64
2018-07-16T11:33:03.602Z,964.68
2018-07-16T11:34:03.592Z,964.68
2018-07-16T11:35:03.519Z,964.67
2018-07-16T11:36:03.483Z,964.66
2018-07-16T11:37:03.473Z,964.70
2018-07-16T11:38:03.405Z,964.71
2018-07-16T11:39:03.409Z,964.58
2018-07-16T11:40:03.324Z,964.63
2018-07-16T11:41:03.281Z,964.59
2018-07-16T11:42:03.238Z,964.58
2018-07-16T11:43:03.198Z,964.56
2018-07-16T11:44:03.203Z,964.50
2018-07-16T11:45:03.123Z,964.43
2018-07-16T11:46:03.103Z,964.46
2018-07-16T11:47:03.040Z,964.47
2018-07-16T11:48:03.010Z,964.48
2018-07-16T11:49:02.994Z,964.45
2018-07-16T11:50:02.953Z,964.43
2018-07-16T11:51:02.879Z,964.47
2018-07-16T11:52:02.842Z,964.55
2018-07-16T11:53:02.802Z,964.52
2018-07-16T11:54:02.760Z,964.52
2018-07-16T11:55:02.751Z,964.57
2018-07-16T11:56:02.710Z,964.52
2018-07-16T11:57:02.641Z,964.50
2018-07-16T11:58:02.601Z,964.53
2018-07-16T11:59:02.681Z,964.51
2018-07-16T12:00:02.521Z,964.49
2018-07-16T12:01:02.521Z,964.48
2018-07-16T12:02:02.438Z,964.48
2018-07-16T12:03:02.395Z,964.53
2018-07-16T12:04:02.365Z,964.54
2018-07-16T12:05:02.344Z,964.58
2018-07-16T12:06:02.308Z,964.56
2018-07-16T12:07:02.267Z,964.60
2018-07-16T12:08:02.193Z,964.63
2018-07-16T12:09:02.151Z,964.60
2018-07-16T12:10:02.112Z,964.50
2018-07-16T12:11:02.074Z,964.45
2018-07-16T12:12:02.068Z,964.45
2018-07-16T12:13:02.020Z,964.47
2018-07-16T12:14:02.000Z,964.43
2018-07-16T12:15:01.940Z,964.43
2018-07-16T12:16:01.867Z,964.42
2018-07-16T12:17:01.859Z,964.42
2018-07-16T12:18:01.846Z,964.36
2018-07-16T12:19:01.744Z,964.36
2018-07-16T12:20:01.702Z,964.34
2018-07-16T12:21:01.659Z,964.35
2018-07-16T12:22:01.620Z,964.30
2018-07-16T12:23:01.614Z,964.31
2018-07-16T12:24:01.535Z,964.29
2018-07-16T12:25:01.495Z,964.29
2018-07-16T12:26:01.578Z,964.25
2018-07-16T12:27:01.416Z,964.25
2018-07-16T12:28:01.401Z,964.21